sensor_id;sensor_type;location;lat;lon;timestamp;pressure;altitude;pressure_sealevel;temperature;humidity
13050;BME280;6591;51.446;5.404;2023-03-22T00:01:23;100676.63;;;15.48;49.74
13050;BME280;6591;51.446;5.404;2023-03-22T00:03:51;100683.03;;;15.46;49.52
13050;BME280;6591;51.446;5.404;2023-03-22T00:06:19;100685.91;;;15.43;49.65
13050;BME280;6591;51.446;5.404;2023-03-22T00:08:49;100686.31;;;15.37;49.76
13050;BME280;6591;51.446;5.404;2023-03-22T00:11:20;100682.03;;;15.34;49.96
13050;BME280;6591;51.446;5.404;2023-03-22T00:13:47;100683.09;;;15.32;49.57
13050;BME280;6591;51.446;5.404;2023-03-22T00:16:14;100680.63;;;15.28;49.90
13050;BME280;6591;51.446;5.404;2023-03-22T00:18:43;100666.59;;;15.25;49.98
13050;BME280;6591;51.446;5.404;2023-03-22T00:21:13;100675.81;;;15.21;49.79
13050;BME280;6591;51.446;5.404;2023-03-22T00:23:42;100667.97;;;15.18;50.16
13050;BME280;6591;51.446;5.404;2023-03-22T00:26:11;100661.97;;;15.14;50.19
13050;BME280;6591;51.446;5.404;2023-03-22T00:28:40;100659.41;;;15.13;50.08
13050;BME280;6591;51.446;5.404;2023-03-22T00:31:08;100660.47;;;15.10;50.45
13050;BME280;6591;51.446;5.404;2023-03-22T00:33:36;100649.88;;;15.09;50.16
13050;BME280;6591;51.446;5.404;2023-03-22T00:36:08;100657.25;;;15.05;50.52
13050;BME280;6591;51.446;5.404;2023-03-22T00:38:37;100655.31;;;15.07;50.27
13050;BME280;6591;51.446;5.404;2023-03-22T00:41:19;100647.50;;;15.04;50.56
13050;BME280;6591;51.446;5.404;2023-03-22T00:43:48;100646.56;;;15.05;50.30
13050;BME280;6591;51.446;5.404;2023-03-22T00:46:18;100635.97;;;15.04;50.62
13050;BME280;6591;51.446;5.404;2023-03-22T00:48:46;100644.84;;;15.04;50.48
13050;BME280;6591;51.446;5.404;2023-03-22T00:51:15;100630.50;;;15.05;50.81
13050;BME280;6591;51.446;5.404;2023-03-22T00:53:43;100629.56;;;15.06;50.88
13050;BME280;6591;51.446;5.404;2023-03-22T00:56:11;100616.19;;;15.06;50.58
13050;BME280;6591;51.446;5.404;2023-03-22T00:58:59;100621.53;;;15.06;50.43
13050;BME280;6591;51.446;5.404;2023-03-22T01:01:27;100613.38;;;15.08;50.70
13050;BME280;6591;51.446;5.404;2023-03-22T01:03:55;100607.19;;;15.07;51.10
13050;BME280;6591;51.446;5.404;2023-03-22T01:06:22;100611.47;;;15.10;50.33
13050;BME280;6591;51.446;5.404;2023-03-22T01:08:49;100601.66;;;15.10;51.00
13050;BME280;6591;51.446;5.404;2023-03-22T01:11:17;100590.72;;;15.13;51.69
13050;BME280;6591;51.446;5.404;2023-03-22T01:13:45;100592.25;;;15.17;51.32
13050;BME280;6591;51.446;5.404;2023-03-22T01:16:16;100589.25;;;15.22;51.23
13050;BME280;6591;51.446;5.404;2023-03-22T01:18:43;100590.84;;;15.24;51.66
13050;BME280;6591;51.446;5.404;2023-03-22T01:21:11;100594.06;;;15.30;51.68
13050;BME280;6591;51.446;5.404;2023-03-22T01:23:39;100584.13;;;15.32;51.26
13050;BME280;6591;51.446;5.404;2023-03-22T01:26:06;100573.19;;;15.35;51.57
13050;BME280;6591;51.446;5.404;2023-03-22T01:28:33;100566.78;;;15.37;51.61
13050;BME280;6591;51.446;5.404;2023-03-22T01:31:02;100561.22;;;15.40;51.65
13050;BME280;6591;51.446;5.404;2023-03-22T01:33:30;100544.97;;;15.43;51.44
13050;BME280;6591;51.446;5.404;2023-03-22T01:35:58;100534.03;;;15.46;51.51
13050;BME280;6591;51.446;5.404;2023-03-22T01:38:26;100538.19;;;15.50;51.73
13050;BME280;6591;51.446;5.404;2023-03-22T01:40:59;100530.97;;;15.52;51.84
13050;BME280;6591;51.446;5.404;2023-03-22T01:43:29;100529.78;;;15.56;51.97
13050;BME280;6591;51.446;5.404;2023-03-22T01:45:58;100527.63;;;15.61;52.04
13050;BME280;6591;51.446;5.404;2023-03-22T01:48:36;100524.84;;;15.63;52.39
13050;BME280;6591;51.446;5.404;2023-03-22T01:51:22;100527.28;;;15.66;51.91
13050;BME280;6591;51.446;5.404;2023-03-22T01:54:44;100514.75;;;15.66;52.31
13050;BME280;6591;51.446;5.404;2023-03-22T01:57:25;100514.94;;;15.76;52.18
13050;BME280;6591;51.446;5.404;2023-03-22T01:59:53;100506.47;;;15.82;52.08
13050;BME280;6591;51.446;5.404;2023-03-22T02:05:41;100496.28;;;15.87;51.66
13050;BME280;6591;51.446;5.404;2023-03-22T02:08:11;100498.75;;;15.90;52.10
13050;BME280;6591;51.446;5.404;2023-03-22T02:10:53;100495.00;;;15.93;52.01
13050;BME280;6591;51.446;5.404;2023-03-22T02:13:48;100495.84;;;15.93;52.19
13050;BME280;6591;51.446;5.404;2023-03-22T02:29:41;100480.59;;;16.06;52.42
13050;BME280;6591;51.446;5.404;2023-03-22T02:35:33;100477.59;;;16.11;52.13
13050;BME280;6591;51.446;5.404;2023-03-22T02:42:08;100470.06;;;16.16;52.34
13050;BME280;6591;51.446;5.404;2023-03-22T02:44:41;100463.38;;;16.22;52.28
13050;BME280;6591;51.446;5.404;2023-03-22T02:47:36;100460.56;;;16.23;52.41
13050;BME280;6591;51.446;5.404;2023-03-22T02:52:43;100466.84;;;16.35;52.46
13050;BME280;6591;51.446;5.404;2023-03-22T02:58:32;100452.38;;;16.37;52.35
13050;BME280;6591;51.446;5.404;2023-03-22T03:01:08;100444.94;;;16.41;52.63
13050;BME280;6591;51.446;5.404;2023-03-22T03:03:38;100447.16;;;16.47;52.11
13050;BME280;6591;51.446;5.404;2023-03-22T03:06:12;100447.16;;;16.47;52.49
13050;BME280;6591;51.446;5.404;2023-03-22T03:08:43;100445.09;;;16.50;52.16
13050;BME280;6591;51.446;5.404;2023-03-22T03:11:12;100441.34;;;16.53;52.16
13050;BME280;6591;51.446;5.404;2023-03-22T03:13:40;100432.44;;;16.52;52.17
13050;BME280;6591;51.446;5.404;2023-03-22T03:16:12;100435.13;;;16.52;52.08
13050;BME280;6591;51.446;5.404;2023-03-22T03:18:57;100436.94;;;16.52;52.30
13050;BME280;6591;51.446;5.404;2023-03-22T03:24:27;100432.56;;;16.51;52.37
13050;BME280;6591;51.446;5.404;2023-03-22T03:27:31;100429.13;;;16.49;52.04
13050;BME280;6591;51.446;5.404;2023-03-22T03:30:17;100434.25;;;16.52;51.95
13050;BME280;6591;51.446;5.404;2023-03-22T03:32:56;100427.09;;;16.52;52.16
13050;BME280;6591;51.446;5.404;2023-03-22T03:35:36;100432.31;;;16.54;52.26
13050;BME280;6591;51.446;5.404;2023-03-22T03:38:15;100427.09;;;16.52;52.08
13050;BME280;6591;51.446;5.404;2023-03-22T03:40:54;100423.53;;;16.52;52.34
13050;BME280;6591;51.446;5.404;2023-03-22T03:43:23;100423.28;;;16.55;52.02
13050;BME280;6591;51.446;5.404;2023-03-22T03:45:53;100424.16;;;16.56;51.52
13050;BME280;6591;51.446;5.404;2023-03-22T03:48:28;100433.16;;;16.54;52.11
13050;BME280;6591;51.446;5.404;2023-03-22T03:50:56;100433.16;;;16.54;52.02
13050;BME280;6591;51.446;5.404;2023-03-22T03:53:25;100429.63;;;16.54;51.76
13050;BME280;6591;51.446;5.404;2023-03-22T03:55:52;100436.84;;;16.53;51.78
13050;BME280;6591;51.446;5.404;2023-03-22T03:58:19;100433.41;;;16.51;51.64
13050;BME280;6591;51.446;5.404;2023-03-22T04:00:48;100428.28;;;16.48;51.66
13050;BME280;6591;51.446;5.404;2023-03-22T04:03:37;100434.72;;;16.46;51.83
13050;BME280;6591;51.446;5.404;2023-03-22T04:06:10;100436.91;;;16.41;51.26
13050;BME280;6591;51.446;5.404;2023-03-22T04:08:42;100435.19;;;16.40;51.81
13050;BME280;6591;51.446;5.404;2023-03-22T04:11:13;100437.16;;;16.38;51.92
13050;BME280;6591;51.446;5.404;2023-03-22T04:13:42;100428.38;;;16.36;51.58
13050;BME280;6591;51.446;5.404;2023-03-22T04:16:14;100430.28;;;16.34;51.63
13050;BME280;6591;51.446;5.404;2023-03-22T04:18:41;100425.19;;;16.31;51.71
13050;BME280;6591;51.446;5.404;2023-03-22T04:21:08;100421.75;;;16.29;52.09
13050;BME280;6591;51.446;5.404;2023-03-22T04:23:46;100433.44;;;16.28;51.82
13050;BME280;6591;51.446;5.404;2023-03-22T04:26:15;100420.28;;;16.25;51.84
13050;BME280;6591;51.446;5.404;2023-03-22T04:29:04;100415.16;;;16.22;51.51
13050;BME280;6591;51.446;5.404;2023-03-22T04:31:33;100411.75;;;16.20;51.84
13050;BME280;6591;51.446;5.404;2023-03-22T04:34:13;100417.09;;;16.20;51.54
13050;BME280;6591;51.446;5.404;2023-03-22T04:36:48;100419.88;;;16.18;51.48
13050;BME280;6591;51.446;5.404;2023-03-22T04:39:29;100414.78;;;16.15;51.65
13050;BME280;6591;51.446;5.404;2023-03-22T04:42:17;100411.22;;;16.15;51.68
13050;BME280;6591;51.446;5.404;2023-03-22T04:44:46;100410.47;;;16.13;51.66
13050;BME280;6591;51.446;5.404;2023-03-22T04:47:13;100414.97;;;16.12;51.52
13050;BME280;6591;51.446;5.404;2023-03-22T04:49:40;100411.47;;;16.12;51.64
13050;BME280;6591;51.446;5.404;2023-03-22T04:52:10;100410.72;;;16.09;51.81
13050;BME280;6591;51.446;5.404;2023-03-22T04:54:38;100410.72;;;16.09;52.24
13050;BME280;6591;51.446;5.404;2023-03-22T04:57:06;100409.88;;;16.09;51.91
13050;BME280;6591;51.446;5.404;2023-03-22T04:59:38;100412.53;;;16.09;51.82
13050;BME280;6591;51.446;5.404;2023-03-22T05:02:06;100405.38;;;16.09;52.24
13050;BME280;6591;51.446;5.404;2023-03-22T05:04:39;100407.09;;;16.10;52.13
13050;BME280;6591;51.446;5.404;2023-03-22T05:07:18;100405.97;;;16.13;51.94
13050;BME280;6591;51.446;5.404;2023-03-22T05:09:51;100409.41;;;16.15;52.12
13050;BME280;6591;51.446;5.404;2023-03-22T05:12:18;100404.91;;;16.16;52.16
13050;BME280;6591;51.446;5.404;2023-03-22T05:14:51;100392.25;;;16.18;52.04
13050;BME280;6591;51.446;5.404;2023-03-22T05:17:23;100401.13;;;16.18;51.93
13050;BME280;6591;51.446;5.404;2023-03-22T05:19:53;100396.63;;;16.19;51.80
13050;BME280;6591;51.446;5.404;2023-03-22T05:22:20;100399.31;;;16.19;51.82
13050;BME280;6591;51.446;5.404;2023-03-22T05:24:49;100392.03;;;16.21;51.98
13050;BME280;6591;51.446;5.404;2023-03-22T05:27:21;100392.03;;;16.21;51.87
13050;BME280;6591;51.446;5.404;2023-03-22T05:30:16;100396.53;;;16.20;51.80
13050;BME280;6591;51.446;5.404;2023-03-22T05:32:59;100398.34;;;16.20;51.97
13050;BME280;6591;51.446;5.404;2023-03-22T05:35:38;100395.41;;;16.23;52.07
13050;BME280;6591;51.446;5.404;2023-03-22T05:38:09;100395.31;;;16.24;51.85
13050;BME280;6591;51.446;5.404;2023-03-22T05:40:40;100396.91;;;16.27;51.86
13050;BME280;6591;51.446;5.404;2023-03-22T05:43:07;100401.19;;;16.29;52.10
13050;BME280;6591;51.446;5.404;2023-03-22T05:45:37;100394.75;;;16.32;52.12
13050;BME280;6591;51.446;5.404;2023-03-22T05:48:24;100385.75;;;16.33;51.81
13050;BME280;6591;51.446;5.404;2023-03-22T05:50:51;100396.22;;;16.36;51.80
13050;BME280;6591;51.446;5.404;2023-03-22T05:53:18;100395.25;;;16.37;51.80
13050;BME280;6591;51.446;5.404;2023-03-22T05:55:58;100403.13;;;16.38;52.09
13050;BME280;6591;51.446;5.404;2023-03-22T05:58:31;100401.31;;;16.39;51.95
13050;BME280;6591;51.446;5.404;2023-03-22T06:01:11;100406.69;;;16.39;52.00
13050;BME280;6591;51.446;5.404;2023-03-22T06:03:44;100404.50;;;16.44;51.87
13050;BME280;6591;51.446;5.404;2023-03-22T06:06:30;100404.38;;;16.45;51.70
13050;BME280;6591;51.446;5.404;2023-03-22T06:09:04;100394.41;;;16.47;51.98
13050;BME280;6591;51.446;5.404;2023-03-22T06:11:45;100391.59;;;16.49;51.84
13050;BME280;6591;51.446;5.404;2023-03-22T06:14:14;100397.59;;;16.52;51.85
13050;BME280;6591;51.446;5.404;2023-03-22T06:16:51;100397.47;;;16.54;51.59
13050;BME280;6591;51.446;5.404;2023-03-22T06:19:19;100399.91;;;16.57;51.85
13050;BME280;6591;51.446;5.404;2023-03-22T06:21:46;100400.56;;;16.61;51.81
13050;BME280;6591;51.446;5.404;2023-03-22T06:24:15;100387.78;;;16.64;51.93
13050;BME280;6591;51.446;5.404;2023-03-22T06:26:42;100396.31;;;16.69;52.00
13050;BME280;6591;51.446;5.404;2023-03-22T06:29:09;100396.81;;;16.74;52.13
13050;BME280;6591;51.446;5.404;2023-03-22T06:31:36;100406.06;;;16.81;52.27
13050;BME280;6591;51.446;5.404;2023-03-22T06:34:05;100396.81;;;16.85;51.91
13050;BME280;6591;51.446;5.404;2023-03-22T06:36:39;100395.34;;;16.92;51.82
13050;BME280;6591;51.446;5.404;2023-03-22T06:39:31;100395.97;;;16.96;52.11
13050;BME280;6591;51.446;5.404;2023-03-22T06:41:58;100390.97;;;17.03;51.97
13050;BME280;6591;51.446;5.404;2023-03-22T06:44:25;100393.06;;;17.10;51.98
13050;BME280;6591;51.446;5.404;2023-03-22T06:47:13;100398.91;;;17.15;51.82
13050;BME280;6591;51.446;5.404;2023-03-22T06:49:56;100401.94;;;17.22;51.19
13050;BME280;6591;51.446;5.404;2023-03-22T06:52:35;100401.44;;;17.28;51.69
13050;BME280;6591;51.446;5.404;2023-03-22T06:55:05;100404.63;;;17.33;51.53
13050;BME280;6591;51.446;5.404;2023-03-22T06:57:33;100389.75;;;17.40;51.74
13050;BME280;6591;51.446;5.404;2023-03-22T07:00:00;100388.13;;;17.49;51.70
13050;BME280;6591;51.446;5.404;2023-03-22T07:02:28;100392.66;;;17.59;51.67
13050;BME280;6591;51.446;5.404;2023-03-22T07:05:25;100399.97;;;17.68;51.63
13050;BME280;6591;51.446;5.404;2023-03-22T07:07:52;100391.16;;;17.77;51.41
13050;BME280;6591;51.446;5.404;2023-03-22T07:10:19;100395.06;;;17.85;51.08
13050;BME280;6591;51.446;5.404;2023-03-22T07:12:46;100385.47;;;17.92;50.90
13050;BME280;6591;51.446;5.404;2023-03-22T07:15:15;100376.91;;;17.98;51.28
13050;BME280;6591;51.446;5.404;2023-03-22T07:18:03;100388.25;;;18.01;50.98
13050;BME280;6591;51.446;5.404;2023-03-22T07:20:33;100390.69;;;18.04;50.60
13050;BME280;6591;51.446;5.404;2023-03-22T07:23:04;100393.13;;;18.07;50.70
13050;BME280;6591;51.446;5.404;2023-03-22T07:25:36;100399.81;;;18.13;50.76
13050;BME280;6591;51.446;5.404;2023-03-22T07:28:26;100401.25;;;18.17;50.76
13050;BME280;6591;51.446;5.404;2023-03-22T07:31:14;100397.34;;;18.21;50.84
13050;BME280;6591;51.446;5.404;2023-03-22T07:34:10;100403.66;;;18.31;50.59
13050;BME280;6591;51.446;5.404;2023-03-22T07:36:52;100404.81;;;18.38;50.32
13050;BME280;6591;51.446;5.404;2023-03-22T07:39:22;100394.41;;;18.45;50.38
13050;BME280;6591;51.446;5.404;2023-03-22T07:41:53;100390.22;;;18.52;50.11
13050;BME280;6591;51.446;5.404;2023-03-22T07:44:23;100405.00;;;18.57;50.20
13050;BME280;6591;51.446;5.404;2023-03-22T07:47:18;100396.28;;;18.65;50.23
13050;BME280;6591;51.446;5.404;2023-03-22T07:50:19;100392.94;;;18.73;49.99
13050;BME280;6591;51.446;5.404;2023-03-22T07:52:52;100392.97;;;18.82;49.37
13050;BME280;6591;51.446;5.404;2023-03-22T07:55:19;100401.22;;;18.90;49.58
13050;BME280;6591;51.446;5.404;2023-03-22T07:57:46;100403.13;;;18.99;49.65
13050;BME280;6591;51.446;5.404;2023-03-22T08:00:14;100396.81;;;19.10;49.29
13050;BME280;6591;51.446;5.404;2023-03-22T08:02:45;100402.22;;;19.20;49.33
13050;BME280;6591;51.446;5.404;2023-03-22T08:05:29;100396.03;;;19.29;48.80
13050;BME280;6591;51.446;5.404;2023-03-22T08:08:00;100394.63;;;19.34;48.33
13050;BME280;6591;51.446;5.404;2023-03-22T08:10:27;100395.19;;;19.38;48.03
13050;BME280;6591;51.446;5.404;2023-03-22T08:12:54;100389.56;;;19.41;48.03
13050;BME280;6591;51.446;5.404;2023-03-22T08:15:24;100403.34;;;19.48;48.02
13050;BME280;6591;51.446;5.404;2023-03-22T08:17:52;100398.38;;;19.53;47.90
13050;BME280;6591;51.446;5.404;2023-03-22T08:20:30;100407.75;;;19.58;48.10
13050;BME280;6591;51.446;5.404;2023-03-22T08:23:02;100412.59;;;19.64;47.80
13050;BME280;6591;51.446;5.404;2023-03-22T08:25:50;100405.56;;;19.73;47.82
13050;BME280;6591;51.446;5.404;2023-03-22T08:28:18;100408.09;;;19.84;47.97
13050;BME280;6591;51.446;5.404;2023-03-22T08:30:47;100413.66;;;19.92;47.69
13050;BME280;6591;51.446;5.404;2023-03-22T08:33:14;100396.63;;;20.01;47.64
13050;BME280;6591;51.446;5.404;2023-03-22T08:35:44;100388.41;;;20.12;47.17
13050;BME280;6591;51.446;5.404;2023-03-22T08:38:12;100393.09;;;20.20;47.13
13050;BME280;6591;51.446;5.404;2023-03-22T08:40:47;100391.97;;;20.32;47.00
13050;BME280;6591;51.446;5.404;2023-03-22T08:43:18;100367.69;;;20.42;47.06
13050;BME280;6591;51.446;5.404;2023-03-22T08:45:46;100376.63;;;20.52;46.45
13050;BME280;6591;51.446;5.404;2023-03-22T08:48:18;100384.84;;;20.60;46.45
13050;BME280;6591;51.446;5.404;2023-03-22T08:51:00;100390.66;;;20.65;46.24
13050;BME280;6591;51.446;5.404;2023-03-22T08:53:48;100388.94;;;20.73;45.87
13050;BME280;6591;51.446;5.404;2023-03-22T08:56:36;100392.03;;;20.79;46.03
13050;BME280;6591;51.446;5.404;2023-03-22T08:59:23;100387.06;;;20.84;45.88
13050;BME280;6591;51.446;5.404;2023-03-22T09:02:13;100394.56;;;20.90;45.66
13050;BME280;6591;51.446;5.404;2023-03-22T09:04:41;100389.03;;;20.91;45.28
13050;BME280;6591;51.446;5.404;2023-03-22T09:07:09;100382.34;;;20.95;44.96
13050;BME280;6591;51.446;5.404;2023-03-22T09:09:37;100383.72;;;20.99;45.05
13050;BME280;6591;51.446;5.404;2023-03-22T09:12:04;100382.28;;;21.05;44.66
13050;BME280;6591;51.446;5.404;2023-03-22T09:14:34;100381.03;;;21.09;44.83
13050;BME280;6591;51.446;5.404;2023-03-22T09:17:04;100366.34;;;21.11;44.55
13050;BME280;6591;51.446;5.404;2023-03-22T09:19:31;100377.31;;;21.20;44.45
13050;BME280;6591;51.446;5.404;2023-03-22T09:21:58;100371.28;;;21.26;44.28
13050;BME280;6591;51.446;5.404;2023-03-22T09:24:40;100355.34;;;21.32;44.22
13050;BME280;6591;51.446;5.404;2023-03-22T09:27:07;100353.19;;;21.36;43.98
13050;BME280;6591;51.446;5.404;2023-03-22T09:29:35;100358.97;;;21.41;43.73
13050;BME280;6591;51.446;5.404;2023-03-22T09:32:06;100355.00;;;21.45;43.64
13050;BME280;6591;51.446;5.404;2023-03-22T09:34:36;100372.59;;;21.49;43.69
13050;BME280;6591;51.446;5.404;2023-03-22T09:37:03;100371.00;;;21.56;43.88
13050;BME280;6591;51.446;5.404;2023-03-22T09:39:40;100369.53;;;21.62;43.81
13050;BME280;6591;51.446;5.404;2023-03-22T09:45:16;100359.47;;;21.54;42.74
13050;BME280;6591;51.446;5.404;2023-03-22T09:47:51;100345.59;;;21.49;42.64
13050;BME280;6591;51.446;5.404;2023-03-22T09:50:26;100358.69;;;21.44;42.60
13050;BME280;6591;51.446;5.404;2023-03-22T09:52:56;100368.97;;;21.40;42.62
13050;BME280;6591;51.446;5.404;2023-03-22T09:55:45;100365.59;;;21.29;42.53
13050;BME280;6591;51.446;5.404;2023-03-22T10:00:59;100365.09;;;21.16;42.45
13050;BME280;6591;51.446;5.404;2023-03-22T10:06:13;100360.47;;;20.98;42.32
13050;BME280;6591;51.446;5.404;2023-03-22T10:12:22;100364.91;;;20.80;42.62
13050;BME280;6591;51.446;5.404;2023-03-22T10:15:15;100366.34;;;20.75;42.71
13050;BME280;6591;51.446;5.404;2023-03-22T10:17:51;100366.34;;;20.75;43.22
13050;BME280;6591;51.446;5.404;2023-03-22T10:23:10;100368.78;;;20.68;42.85
13050;BME280;6591;51.446;5.404;2023-03-22T10:25:41;100366.06;;;20.68;42.78
13050;BME280;6591;51.446;5.404;2023-03-22T10:28:25;100371.22;;;20.61;42.43
13050;BME280;6591;51.446;5.404;2023-03-22T10:30:56;100373.91;;;20.61;42.80
13050;BME280;6591;51.446;5.404;2023-03-22T10:33:41;100385.44;;;20.54;42.98
13050;BME280;6591;51.446;5.404;2023-03-22T10:36:22;100375.38;;;20.46;43.08
13050;BME280;6591;51.446;5.404;2023-03-22T10:39:02;100382.03;;;20.33;42.75
13050;BME280;6591;51.446;5.404;2023-03-22T10:41:32;100374.38;;;20.18;43.17
13050;BME280;6591;51.446;5.404;2023-03-22T10:44:03;100375.78;;;20.03;43.40
13050;BME280;6591;51.446;5.404;2023-03-22T10:46:37;100374.34;;;19.89;43.58
13050;BME280;6591;51.446;5.404;2023-03-22T10:49:06;100384.44;;;19.78;43.62
13050;BME280;6591;51.446;5.404;2023-03-22T10:51:46;100377.72;;;19.63;44.49
13050;BME280;6591;51.446;5.404;2023-03-22T10:54:18;100378.41;;;19.55;44.70
13050;BME280;6591;51.446;5.404;2023-03-22T10:56:46;100378.84;;;19.51;45.04
13050;BME280;6591;51.446;5.404;2023-03-22T10:59:50;100377.19;;;19.38;45.41
13050;BME280;6591;51.446;5.404;2023-03-22T11:02:26;100378.19;;;19.37;45.54
13050;BME280;6591;51.446;5.404;2023-03-22T11:05:00;100368.81;;;19.32;45.55
13050;BME280;6591;51.446;5.404;2023-03-22T11:07:42;100390.91;;;19.26;45.74
13050;BME280;6591;51.446;5.404;2023-03-22T11:10:23;100371.75;;;19.19;45.94
13050;BME280;6591;51.446;5.404;2023-03-22T11:12:53;100383.06;;;19.13;45.95
13050;BME280;6591;51.446;5.404;2023-03-22T11:15:25;100374.84;;;19.05;45.98
13050;BME280;6591;51.446;5.404;2023-03-22T11:18:03;100379.16;;;18.96;46.52
13050;BME280;6591;51.446;5.404;2023-03-22T11:20:33;100375.91;;;18.93;46.54
13050;BME280;6591;51.446;5.404;2023-03-22T11:23:03;100372.22;;;18.94;46.72
13050;BME280;6591;51.446;5.404;2023-03-22T11:25:37;100377.31;;;18.97;47.07
13050;BME280;6591;51.446;5.404;2023-03-22T11:28:20;100377.78;;;19.02;47.26
13050;BME280;6591;51.446;5.404;2023-03-22T11:31:12;100368.44;;;19.06;47.32
13050;BME280;6591;51.446;5.404;2023-03-22T11:34:00;100373.28;;;19.12;47.46
13050;BME280;6591;51.446;5.404;2023-03-22T11:36:28;100383.22;;;19.21;46.86
13050;BME280;6591;51.446;5.404;2023-03-22T11:38:59;100364.69;;;19.28;47.40
13050;BME280;6591;51.446;5.404;2023-03-22T11:41:30;100372.53;;;19.31;47.16
13050;BME280;6591;51.446;5.404;2023-03-22T11:44:04;100366.44;;;19.38;47.35
13050;BME280;6591;51.446;5.404;2023-03-22T11:46:33;100365.63;;;19.48;47.24
13050;BME280;6591;51.446;5.404;2023-03-22T11:49:12;100375.72;;;19.55;47.05
13050;BME280;6591;51.446;5.404;2023-03-22T11:51:41;100351.34;;;19.66;47.37
13050;BME280;6591;51.446;5.404;2023-03-22T11:54:19;100369.38;;;19.75;47.44
13050;BME280;6591;51.446;5.404;2023-03-22T11:56:49;100369.53;;;19.83;47.24
13050;BME280;6591;51.446;5.404;2023-03-22T11:59:25;100364.59;;;19.88;46.83
13050;BME280;6591;51.446;5.404;2023-03-22T12:02:18;100360.00;;;19.89;46.95
13050;BME280;6591;51.446;5.404;2023-03-22T12:04:49;100359.03;;;20.00;47.10
13050;BME280;6591;51.446;5.404;2023-03-22T12:07:19;100355.63;;;20.07;47.05
13050;BME280;6591;51.446;5.404;2023-03-22T12:10:12;100357.19;;;20.10;46.83
13050;BME280;6591;51.446;5.404;2023-03-22T12:12:57;100346.84;;;20.15;47.02
13050;BME280;6591;51.446;5.404;2023-03-22T12:15:30;100338.03;;;20.22;46.78
13050;BME280;6591;51.446;5.404;2023-03-22T12:18:36;100341.44;;;20.24;46.47
13050;BME280;6591;51.446;5.404;2023-03-22T12:21:07;100346.00;;;20.34;46.41
13050;BME280;6591;51.446;5.404;2023-03-22T12:23:35;100339.31;;;20.38;46.65
13050;BME280;6591;51.446;5.404;2023-03-22T12:26:13;100338.31;;;20.39;46.36
13050;BME280;6591;51.446;5.404;2023-03-22T12:28:55;100342.84;;;20.38;45.97
13050;BME280;6591;51.446;5.404;2023-03-22T12:31:42;100337.34;;;20.40;46.29
13050;BME280;6591;51.446;5.404;2023-03-22T12:34:19;100340.88;;;20.40;46.25
13050;BME280;6591;51.446;5.404;2023-03-22T12:36:53;100334.34;;;20.43;46.14
13050;BME280;6591;51.446;5.404;2023-03-22T12:39:32;100335.31;;;20.42;45.65
13050;BME280;6591;51.446;5.404;2023-03-22T12:42:36;100335.94;;;20.36;46.02
13050;BME280;6591;51.446;5.404;2023-03-22T12:45:23;100328.25;;;20.41;45.34
13050;BME280;6591;51.446;5.404;2023-03-22T12:50:57;100344.69;;;20.38;45.07
13050;BME280;6591;51.446;5.404;2023-03-22T12:53:34;100336.91;;;20.35;45.05
13050;BME280;6591;51.446;5.404;2023-03-22T12:56:02;100343.44;;;20.32;45.27
13050;BME280;6591;51.446;5.404;2023-03-22T12:58:29;100332.06;;;20.28;45.32
13050;BME280;6591;51.446;5.404;2023-03-22T13:01:32;100333.78;;;20.20;45.28
13050;BME280;6591;51.446;5.404;2023-03-22T13:07:37;100351.53;;;20.13;45.34
13050;BME280;6591;51.446;5.404;2023-03-22T13:13:31;100337.75;;;20.06;45.30
13050;BME280;6591;51.446;5.404;2023-03-22T13:21:22;100325.69;;;20.01;45.21
13050;BME280;6591;51.446;5.404;2023-03-22T13:26:57;100324.16;;;19.98;45.42
13050;BME280;6591;51.446;5.404;2023-03-22T13:29:34;100318.59;;;20.00;45.50
13050;BME280;6591;51.446;5.404;2023-03-22T13:32:27;100322.44;;;19.97;45.71
13050;BME280;6591;51.446;5.404;2023-03-22T13:34:56;100322.88;;;20.02;45.48
13050;BME280;6591;51.446;5.404;2023-03-22T13:37:34;100332.22;;;19.98;45.50
13050;BME280;6591;51.446;5.404;2023-03-22T13:40:18;100334.94;;;19.98;45.47
13050;BME280;6591;51.446;5.404;2023-03-22T13:42:50;100332.22;;;19.98;45.15
13050;BME280;6591;51.446;5.404;2023-03-22T13:45:33;100320.00;;;19.94;45.41
13050;BME280;6591;51.446;5.404;2023-03-22T13:48:29;100320.19;;;19.93;45.46
13050;BME280;6591;51.446;5.404;2023-03-22T13:56:54;100312.50;;;19.98;45.79
13050;BME280;6591;51.446;5.404;2023-03-22T14:02:18;100319.75;;;19.97;45.86
13050;BME280;6591;51.446;5.404;2023-03-22T14:05:01;100314.06;;;20.00;45.79
13050;BME280;6591;51.446;5.404;2023-03-22T14:07:40;100314.78;;;20.02;45.82
13050;BME280;6591;51.446;5.404;2023-03-22T14:10:40;100312.09;;;20.02;45.79
13050;BME280;6591;51.446;5.404;2023-03-22T14:13:25;100316.47;;;20.03;45.54
13050;BME280;6591;51.446;5.404;2023-03-22T14:16:01;100314.47;;;20.05;45.80
13050;BME280;6591;51.446;5.404;2023-03-22T14:18:32;100319.19;;;20.03;45.82
13050;BME280;6591;51.446;5.404;2023-03-22T14:21:12;100310.81;;;19.97;45.89
13050;BME280;6591;51.446;5.404;2023-03-22T14:23:46;100308.25;;;19.95;45.89
13050;BME280;6591;51.446;5.404;2023-03-22T14:26:34;100298.88;;;19.89;46.29
13050;BME280;6591;51.446;5.404;2023-03-22T14:31:40;100291.81;;;19.88;45.87
13050;BME280;6591;51.446;5.404;2023-03-22T14:34:11;100290.97;;;19.88;46.16
13050;BME280;6591;51.446;5.404;2023-03-22T14:36:43;100295.63;;;19.86;46.38
13050;BME280;6591;51.446;5.404;2023-03-22T14:39:19;100293.25;;;19.83;46.33
13050;BME280;6591;51.446;5.404;2023-03-22T14:44:40;100289.81;;;19.81;46.47
13050;BME280;6591;51.446;5.404;2023-03-22T14:47:26;100290.13;;;19.78;46.43
13050;BME280;6591;51.446;5.404;2023-03-22T14:49:57;100279.91;;;19.81;46.58
13050;BME280;6591;51.446;5.404;2023-03-22T14:52:33;100275.63;;;19.79;46.48
13050;BME280;6591;51.446;5.404;2023-03-22T14:55:07;100282.72;;;19.80;46.83
13050;BME280;6591;51.446;5.404;2023-03-22T14:57:37;100290.13;;;19.78;46.65
13050;BME280;6591;51.446;5.404;2023-03-22T15:00:12;100272.38;;;19.75;46.83